^^
Grace C. Lehan Memorial Weather Station Historical Data
Daily Summary for August 11, 2021 Units:  Both    English   Metric
Daily Weekly Monthly Yearly
  High: Low: Average:
Temperature: 79.2 °F /  26.2 °C 55.3 °F /  12.9 °C 65.6 °F /  18.7 °C
Dew Point: 56.9 °F /  13.8 °C 47.4 °F /  8.6 °C 50.2 °F /  10.1 °C
Humidity: 86% 33% 61%
Wind Speed: 1.2mph /  1.9km/h - 0.1mph /  0.2km/h
Wind Gust: 10mph /  16.1km/h - -
Wind- - SE
Pressure: 30.08 in /  1018.5 hPa 29.86 in /  1011.1 hPa -
Precipitation: 0.00 in /  0 mm    
 
 
Tabular Data for August 11, 2021
Time Temperature Dew Point Pressure Wind Wind Speed Wind Gust Humidity Rainfall Rate (Hourly) solar
00:09 60.2 °F /  15.7 °C 50.5 °F /  10.3 °C 30.08in /  1018.5hPa Calm   2mph /  3.2km/h 70.2% 0.00in /  0mm 0 W/m2
00:14 60.2 °F /  15.7 °C 50.7 °F /  10.4 °C 30.08in /  1018.5hPa Calm   2mph /  3.2km/h 71% 0.00in /  0mm 0 W/m2
00:19 60 °F /  15.6 °C 50.6 °F /  10.3 °C 30.08in /  1018.5hPa Calm   2mph /  3.2km/h 71% 0.00in /  0mm 0 W/m2
00:24 60 °F /  15.6 °C 50.6 °F /  10.3 °C 30.08in /  1018.5hPa Calm   2mph /  3.2km/h 71% 0.00in /  0mm 0 W/m2
00:29 59.9 °F /  15.5 °C 50.6 °F /  10.3 °C 30.08in /  1018.5hPa Calm   2mph /  3.2km/h 71.4% 0.00in /  0mm 0 W/m2
00:34 59.8 °F /  15.4 °C 50.8 °F /  10.4 °C 30.08in /  1018.5hPa Calm   2mph /  3.2km/h 72% 0.00in /  0mm 0 W/m2
00:39 59.7 °F /  15.4 °C 50.6 °F /  10.3 °C 30.08in /  1018.5hPa Calm     72% 0.00in /  0mm 0 W/m2
00:44 59.5 °F /  15.3 °C 50.6 °F /  10.3 °C 30.08in /  1018.5hPa Calm     72.2% 0.00in /  0mm 0 W/m2
00:49 59.5 °F /  15.3 °C 50.8 °F /  10.4 °C 30.08in /  1018.5hPa Calm     73% 0.00in /  0mm 0 W/m2
00:54 59.4 °F /  15.2 °C 50.8 °F /  10.4 °C 30.07in /  1018.2hPa Calm     73.1% 0.00in /  0mm 0 W/m2
00:59 59.3 °F /  15.2 °C 50.9 °F /  10.5 °C 30.07in /  1018.2hPa Calm     73.8% 0.00in /  0mm 0 W/m2
01:04 59.2 °F /  15.1 °C 50.9 °F /  10.5 °C 30.07in /  1018.2hPa Calm     74% 0.00in /  0mm 0 W/m2
01:09 59.1 °F /  15.1 °C 50.8 °F /  10.4 °C 30.07in /  1018.2hPa Calm     74% 0.00in /  0mm 0 W/m2
01:14 59 °F /  15 °C 51 °F /  10.6 °C 30.07in /  1018.2hPa Calm     74.7% 0.00in /  0mm 0 W/m2
01:19 58.9 °F /  14.9 °C 50.7 °F /  10.4 °C 30.07in /  1018.2hPa Calm     74.3% 0.00in /  0mm 0 W/m2
01:24 58.8 °F /  14.9 °C 50.9 °F /  10.5 °C 30.07in /  1018.2hPa Calm     75% 0.00in /  0mm 0 W/m2
01:29 58.7 °F /  14.8 °C 50.8 °F /  10.4 °C 30.07in /  1018.2hPa Calm     75% 0.00in /  0mm 0 W/m2
01:34 58.6 °F /  14.8 °C 50.7 °F /  10.4 °C 30.07in /  1018.2hPa Calm     75% 0.00in /  0mm 0 W/m2
01:39 58.5 °F /  14.7 °C 50.6 °F /  10.3 °C 30.07in /  1018.2hPa Calm     75% 0.00in /  0mm 0 W/m2
01:44 58.4 °F /  14.7 °C 50.7 °F /  10.4 °C 30.07in /  1018.2hPa Calm     75.4% 0.00in /  0mm 0 W/m2
01:49 58.3 °F /  14.6 °C 50.8 °F /  10.4 °C 30.07in /  1018.2hPa Calm     76% 0.00in /  0mm 0 W/m2
01:54 58.2 °F /  14.6 °C 50.7 °F /  10.4 °C 30.07in /  1018.2hPa Calm     76% 0.00in /  0mm 0 W/m2
01:59 58.1 °F /  14.5 °C 50.8 °F /  10.4 °C 30.07in /  1018.2hPa Calm     76.5% 0.00in /  0mm 0 W/m2
02:04 58 °F /  14.4 °C 50.8 °F /  10.4 °C 30.06in /  1017.8hPa Calm     77% 0.00in /  0mm 0 W/m2
02:09 57.9 °F /  14.4 °C 50.8 °F /  10.4 °C 30.06in /  1017.8hPa Calm     77% 0.00in /  0mm 0 W/m2
02:14 57.8 °F /  14.3 °C 50.6 °F /  10.3 °C 30.06in /  1017.8hPa Calm     77% 0.00in /  0mm 0 W/m2
02:19 57.7 °F /  14.3 °C 50.6 °F /  10.3 °C 30.06in /  1017.8hPa Calm     77.2% 0.00in /  0mm 0 W/m2
02:24 57.6 °F /  14.2 °C 50.8 °F /  10.4 °C 30.06in /  1017.8hPa Calm     78% 0.00in /  0mm 0 W/m2
02:29 57.5 °F /  14.2 °C 50.7 °F /  10.4 °C 30.06in /  1017.8hPa Calm     78% 0.00in /  0mm 0 W/m2
02:34 57.5 °F /  14.2 °C 50.7 °F /  10.4 °C 30.06in /  1017.8hPa Calm     78.2% 0.00in /  0mm 0 W/m2
02:39 57.4 °F /  14.1 °C 50.9 °F /  10.5 °C 30.06in /  1017.8hPa Calm     79% 0.00in /  0mm 0 W/m2
02:44 57.3 °F /  14.1 °C 51.1 °F /  10.6 °C 30.06in /  1017.8hPa Calm     79.8% 0.00in /  0mm 0 W/m2
02:49 57.3 °F /  14.1 °C 51.4 °F /  10.8 °C 30.06in /  1017.8hPa Calm     80.6% 0.00in /  0mm 0 W/m2
02:54 57.3 °F /  14.1 °C 51.5 °F /  10.8 °C 30.06in /  1017.8hPa Calm     81% 0.00in /  0mm 0 W/m2
02:59 57.3 °F /  14.1 °C 51.5 °F /  10.8 °C 30.06in /  1017.8hPa Calm     81% 0.00in /  0mm 0 W/m2
03:04 57.3 °F /  14.1 °C 51.5 °F /  10.8 °C 30.06in /  1017.8hPa Calm     81% 0.00in /  0mm 0 W/m2
03:09 57.3 °F /  14.1 °C 51.5 °F /  10.8 °C 30.06in /  1017.8hPa Calm     81% 0.00in /  0mm 0 W/m2
03:14 57.4 °F /  14.1 °C 51.6 °F /  10.9 °C 30.06in /  1017.8hPa Calm     81% 0.00in /  0mm 0 W/m2
03:19 57.4 °F /  14.1 °C 51.3 °F /  10.7 °C 30.05in /  1017.5hPa Calm     80% 0.00in /  0mm 0 W/m2
03:24 57.4 °F /  14.1 °C 51 °F /  10.6 °C 30.05in /  1017.5hPa Calm     79% 0.00in /  0mm 0 W/m2
03:29 57.5 °F /  14.2 °C 51.1 °F /  10.6 °C 30.05in /  1017.5hPa Calm     79% 0.00in /  0mm 0 W/m2
03:34 57.6 °F /  14.2 °C 51.1 °F /  10.6 °C 30.05in /  1017.5hPa Calm     79% 0.00in /  0mm 0 W/m2
03:39 57.6 °F /  14.2 °C 51.5 °F /  10.8 °C 30.05in /  1017.5hPa Calm     79.8% 0.00in /  0mm 0 W/m2
03:44 57.7 °F /  14.3 °C 51.5 °F /  10.8 °C 30.05in /  1017.5hPa Calm     79.9% 0.00in /  0mm 0 W/m2
03:49 57.7 °F /  14.3 °C 51.2 °F /  10.7 °C 30.05in /  1017.5hPa Calm     79% 0.00in /  0mm 0 W/m2
03:54 57.7 °F /  14.3 °C 51.2 °F /  10.7 °C 30.05in /  1017.5hPa Calm     79% 0.00in /  0mm 0 W/m2
03:59 57.7 °F /  14.3 °C 51.2 °F /  10.7 °C 30.05in /  1017.5hPa Calm     79% 0.00in /  0mm 0 W/m2
04:00 57.7 °F /  14.3 °C 51.2 °F /  10.7 °C 30.04in /  1017.2hPa Calm     79% 0.00in /  0mm 0 W/m2
04:09 57.5 °F /  14.2 °C 51.1 °F /  10.6 °C 30.05in /  1017.5hPa Calm     79% 0.00in /  0mm 0 W/m2
04:14 57.5 °F /  14.2 °C 51 °F /  10.6 °C 30.05in /  1017.5hPa Calm     79% 0.00in /  0mm 0 W/m2
04:19 57.3 °F /  14.1 °C 50.9 °F /  10.5 °C 30.06in /  1017.8hPa Calm     79% 0.00in /  0mm 0 W/m2
04:24 57.2 °F /  14 °C 50.8 °F /  10.4 °C 30.06in /  1017.8hPa Calm     79% 0.00in /  0mm 0 W/m2
04:29 57.1 °F /  13.9 °C 50.7 °F /  10.4 °C 30.06in /  1017.8hPa Calm     79% 0.00in /  0mm 0 W/m2
04:34 57 °F /  13.9 °C 50.5 °F /  10.3 °C 30.06in /  1017.8hPa Calm     79% 0.00in /  0mm 0 W/m2
04:39 56.8 °F /  13.8 °C 50.4 °F /  10.2 °C 30.06in /  1017.8hPa Calm     79% 0.00in /  0mm 0 W/m2
04:44 56.7 °F /  13.7 °C 50.3 °F /  10.2 °C 30.06in /  1017.8hPa Calm     79% 0.00in /  0mm 0 W/m2
04:49 56.6 °F /  13.7 °C 50.5 °F /  10.3 °C 30.06in /  1017.8hPa Calm     80% 0.00in /  0mm 0 W/m2
04:54 56.4 °F /  13.6 °C 50.3 °F /  10.2 °C 30.06in /  1017.8hPa Calm     80% 0.00in /  0mm 0 W/m2
04:59 56.3 °F /  13.5 °C 50.3 °F /  10.2 °C 30.06in /  1017.8hPa Calm     80% 0.00in /  0mm 0 W/m2
05:04 56.2 °F /  13.4 °C 50.3 °F /  10.2 °C 30.06in /  1017.8hPa Calm     80.4% 0.00in /  0mm 0 W/m2
05:09 56.2 °F /  13.4 °C 50.4 °F /  10.2 °C 30.06in /  1017.8hPa Calm     81% 0.00in /  0mm 0 W/m2
05:14 56 °F /  13.3 °C 50.3 °F /  10.2 °C 30.06in /  1017.8hPa Calm     81% 0.00in /  0mm 0 W/m2
05:19 55.9 °F /  13.3 °C 50.4 °F /  10.2 °C 30.06in /  1017.8hPa Calm     81.5% 0.00in /  0mm 0 W/m2
05:24 55.8 °F /  13.2 °C 50.4 °F /  10.2 °C 30.06in /  1017.8hPa Calm     82% 0.00in /  0mm 0 W/m2
05:29 55.7 °F /  13.2 °C 50.4 °F /  10.2 °C 30.05in /  1017.5hPa Calm     82.4% 0.00in /  0mm 0 W/m2
05:34 55.6 °F /  13.1 °C 50.6 °F /  10.3 °C 30.05in /  1017.5hPa Calm     83% 0.00in /  0mm 5 W/m2
05:39 55.5 °F /  13.1 °C 50.4 °F /  10.2 °C 30.05in /  1017.5hPa Calm     83% 0.00in /  0mm 7 W/m2
05:44 55.5 °F /  13.1 °C 50.5 °F /  10.3 °C 30.05in /  1017.5hPa Calm     83.2% 0.00in /  0mm 11 W/m2
05:49 55.4 °F /  13 °C 50.6 °F /  10.3 °C 30.05in /  1017.5hPa Calm     84% 0.00in /  0mm 14 W/m2
05:54 55.3 °F /  12.9 °C 50.6 °F /  10.3 °C 30.05in /  1017.5hPa Calm     84% 0.00in /  0mm 16 W/m2
05:59 55.3 °F /  12.9 °C 50.7 °F /  10.4 °C 30.04in /  1017.2hPa Calm     84.3% 0.00in /  0mm 18 W/m2
06:04 55.3 °F /  12.9 °C 50.9 °F /  10.5 °C 30.04in /  1017.2hPa Calm     85% 0.00in /  0mm 19 W/m2
06:09 55.4 °F /  13 °C 51 °F /  10.6 °C 30.04in /  1017.2hPa Calm     85.1% 0.00in /  0mm 21 W/m2
06:14 55.5 °F /  13.1 °C 51.4 °F /  10.8 °C 30.04in /  1017.2hPa Calm     86% 0.00in /  0mm 23 W/m2
06:19 55.6 °F /  13.1 °C 51.5 °F /  10.8 °C 30.05in /  1017.5hPa Calm     86% 0.00in /  0mm 25 W/m2
06:24 55.8 °F /  13.2 °C 51.7 °F /  10.9 °C 30.05in /  1017.5hPa Calm     86% 0.00in /  0mm 30 W/m2
06:29 56 °F /  13.3 °C 51.9 °F /  11.1 °C 30.05in /  1017.5hPa Calm     86% 0.00in /  0mm 39 W/m2
06:34 56.3 °F /  13.5 °C 52.1 °F /  11.2 °C 30.04in /  1017.2hPa Calm     86% 0.00in /  0mm 47 W/m2
06:39 56.6 °F /  13.7 °C 52.3 °F /  11.3 °C 30.04in /  1017.2hPa Calm     85.6% 0.00in /  0mm 53 W/m2
06:44 57 °F /  13.9 °C 52.3 °F /  11.3 °C 30.04in /  1017.2hPa Calm     84.2% 0.00in /  0mm 63 W/m2
06:49 57.8 °F /  14.3 °C 52.4 °F /  11.3 °C 30.04in /  1017.2hPa Calm     82.2% 0.00in /  0mm 69 W/m2
06:50 58.3 °F /  14.6 °C 52.5 °F /  11.4 °C 30.05in /  1017.5hPa Calm     81% 0.00in /  0mm 69 W/m2
07:00 60 °F /  15.6 °C 52.1 °F /  11.2 °C 30.04in /  1017.2hPa Calm   2mph /  3.2km/h 75% 0.00in /  0mm 60 W/m2
07:30 63.9 °F /  17.7 °C 50.6 °F /  10.3 °C 30.04in /  1017.2hPa Calm   7mph /  11.3km/h 62% 0.00in /  0mm 138 W/m2
08:04 66 °F /  18.9 °C 48.3 °F /  9.1 °C 30.04in /  1017.2hPa NE 0.9mph /  1.4km/h 7mph /  11.3km/h 52.7% 0.00in /  0mm 457 W/m2
08:09 66.3 °F /  19.1 °C 48.2 °F /  9 °C 30.03in /  1016.8hPa Calm   4mph /  6.4km/h 52% 0.00in /  0mm 476 W/m2
08:14 66.4 °F /  19.1 °C 47.9 °F /  8.8 °C 30.03in /  1016.8hPa Calm   4mph /  6.4km/h 51.3% 0.00in /  0mm 490 W/m2
08:19 66.6 °F /  19.2 °C 49.2 °F /  9.6 °C 30.03in /  1016.8hPa Calm   4mph /  6.4km/h 53.6% 0.00in /  0mm 512 W/m2
08:24 66.9 °F /  19.4 °C 49.3 °F /  9.6 °C 30.03in /  1016.8hPa Calm   4mph /  6.4km/h 53% 0.00in /  0mm 531 W/m2
08:29 67.4 °F /  19.7 °C 48.9 °F /  9.4 °C 30.02in /  1016.5hPa Calm   4mph /  6.4km/h 51.5% 0.00in /  0mm 547 W/m2
08:34 67.7 °F /  19.8 °C 48.2 °F /  9 °C 30.02in /  1016.5hPa Calm   4mph /  6.4km/h 49.7% 0.00in /  0mm 561 W/m2
08:39 68.1 °F /  20.1 °C 48.5 °F /  9.2 °C 30.02in /  1016.5hPa NE 0.8mph /  1.3km/h 4mph /  6.4km/h 49.5% 0.00in /  0mm 577 W/m2
08:44 68.5 °F /  20.3 °C 47.7 °F /  8.7 °C 30.02in /  1016.5hPa Calm   4mph /  6.4km/h 47.3% 0.00in /  0mm 592 W/m2
08:49 68.7 °F /  20.4 °C 48.4 °F /  9.1 °C 30.02in /  1016.5hPa NE 0.6mph /  1km/h 4mph /  6.4km/h 48.2% 0.00in /  0mm 605 W/m2
08:54 69.4 °F /  20.8 °C 48.1 °F /  8.9 °C 30.02in /  1016.5hPa NE 0.5mph /  0.8km/h 4mph /  6.4km/h 46.7% 0.00in /  0mm 619 W/m2
08:59 69.9 °F /  21.1 °C 48.3 °F /  9.1 °C 30.02in /  1016.5hPa NE 0.1mph /  0.2km/h 4mph /  6.4km/h 46.2% 0.00in /  0mm 633 W/m2
09:04 70 °F /  21.1 °C 47.6 °F /  8.7 °C 30.02in /  1016.5hPa Calm   4mph /  6.4km/h 44.8% 0.00in /  0mm 642 W/m2
09:09 69.9 °F /  21.1 °C 47.8 °F /  8.8 °C 30.02in /  1016.5hPa Calm     45.3% 0.00in /  0mm 657 W/m2
09:14 69.9 °F /  21.1 °C 48.8 °F /  9.3 °C 30.02in /  1016.5hPa Calm     47% 0.00in /  0mm 671 W/m2
09:19 70 °F /  21.1 °C 48.9 °F /  9.4 °C 30.02in /  1016.5hPa Calm     47% 0.00in /  0mm 689 W/m2
09:24 70.1 °F /  21.2 °C 48.4 °F /  9.1 °C 30.02in /  1016.5hPa Calm     46.1% 0.00in /  0mm 703 W/m2
09:29 70.2 °F /  21.2 °C 47.6 °F /  8.7 °C 30.01in /  1016.1hPa Calm   1mph /  1.6km/h 44.5% 0.00in /  0mm 728 W/m2
09:34 70.3 °F /  21.3 °C 48 °F /  8.9 °C 30.01in /  1016.1hPa Calm   1mph /  1.6km/h 45% 0.00in /  0mm 729 W/m2
09:39 70.8 °F /  21.6 °C 48.6 °F /  9.2 °C 30.01in /  1016.1hPa Calm     45.3% 0.00in /  0mm 745 W/m2
09:44 71 °F /  21.7 °C 47.9 °F /  8.8 °C 30.01in /  1016.1hPa Calm     43.9% 0.00in /  0mm 756 W/m2
09:49 71 °F /  21.7 °C 47.9 °F /  8.8 °C 30.01in /  1016.1hPa NE 0.6mph /  1km/h 3mph /  4.8km/h 43.8% 0.00in /  0mm 768 W/m2
09:54 71.6 °F /  22 °C 47.6 °F /  8.7 °C 30.01in /  1016.1hPa NE 0.5mph /  0.8km/h 4mph /  6.4km/h 42.4% 0.00in /  0mm 777 W/m2
09:59 71.9 °F /  22.2 °C 48.3 °F /  9.1 °C 30.01in /  1016.1hPa Calm   4mph /  6.4km/h 43.1% 0.00in /  0mm 789 W/m2
10:04 72.2 °F /  22.3 °C 48.4 °F /  9.1 °C 30.00in /  1015.8hPa NE 0.5mph /  0.8km/h 4mph /  6.4km/h 42.9% 0.00in /  0mm 796 W/m2
10:09 72.7 °F /  22.6 °C 47.9 °F /  8.8 °C 30.00in /  1015.8hPa NE 0.4mph /  0.6km/h 4mph /  6.4km/h 41.4% 0.00in /  0mm 816 W/m2
10:14 73.2 °F /  22.9 °C 49.3 °F /  9.6 °C 30.00in /  1015.8hPa NE 0.6mph /  1km/h 4mph /  6.4km/h 42.8% 0.00in /  0mm 826 W/m2
10:19 73.6 °F /  23.1 °C 49.3 °F /  9.6 °C 30.00in /  1015.8hPa Calm   4mph /  6.4km/h 42.4% 0.00in /  0mm 840 W/m2
10:24 73.5 °F /  23.1 °C 47.7 °F /  8.7 °C 30.00in /  1015.8hPa NE 0.1mph /  0.2km/h 4mph /  6.4km/h 40% 0.00in /  0mm 847 W/m2
10:29 73.3 °F /  22.9 °C 47.4 °F /  8.6 °C 30.00in /  1015.8hPa Calm   4mph /  6.4km/h 39.7% 0.00in /  0mm 842 W/m2
10:34 73.4 °F /  23 °C 48.5 °F /  9.2 °C 30.00in /  1015.8hPa Calm   4mph /  6.4km/h 41.3% 0.00in /  0mm 824 W/m2
10:39 73.3 °F /  22.9 °C 48.5 °F /  9.2 °C 30.00in /  1015.8hPa Calm   1mph /  1.6km/h 41.4% 0.00in /  0mm 868 W/m2
10:44 73.4 °F /  23 °C 49.1 °F /  9.5 °C 29.99in /  1015.5hPa Calm   1mph /  1.6km/h 42.3% 0.00in /  0mm 875 W/m2
10:47 73.3 °F /  22.9 °C 48.4 °F /  9.1 °C 29.99in /  1015.5hPa NE 0.2mph /  0.3km/h 3mph /  4.8km/h 41.3% 0.00in /  0mm 905 W/m2
11:00 73.6 °F /  23.1 °C 49.1 °F /  9.5 °C 29.98in /  1015.1hPa Calm   5mph /  8km/h 42% 0.00in /  0mm 852 W/m2
11:30 74.9 °F /  23.8 °C 48.3 °F /  9.1 °C 29.99in /  1015.5hPa Calm   3mph /  4.8km/h 39% 0.00in /  0mm 861 W/m2
12:04 76.4 °F /  24.7 °C 50.4 °F /  10.2 °C 29.99in /  1015.5hPa ENE 0.1mph /  0.2km/h 3mph /  4.8km/h 40.1% 0.00in /  0mm 967 W/m2
12:09 76.6 °F /  24.8 °C 50 °F /  10 °C 29.97in /  1014.8hPa ENE 0.5mph /  0.8km/h 3mph /  4.8km/h 39.3% 0.00in /  0mm 967 W/m2
12:14 76.6 °F /  24.8 °C 51.1 °F /  10.6 °C 29.97in /  1014.8hPa Calm   3mph /  4.8km/h 41% 0.00in /  0mm 977 W/m2
12:19 76.4 °F /  24.7 °C 51.1 °F /  10.6 °C 29.97in /  1014.8hPa ENE 0.3mph /  0.5km/h 3mph /  4.8km/h 41.1% 0.00in /  0mm 974 W/m2
12:24 76.7 °F /  24.8 °C 51.6 °F /  10.9 °C 29.96in /  1014.4hPa ENE 0.4mph /  0.6km/h 3mph /  4.8km/h 41.6% 0.00in /  0mm 976 W/m2
12:29 77.2 °F /  25.1 °C 52.4 °F /  11.3 °C 29.96in /  1014.4hPa NE 0.4mph /  0.6km/h 4mph /  6.4km/h 42% 0.00in /  0mm 981 W/m2
12:34 77.6 °F /  25.3 °C 51.3 °F /  10.7 °C 29.96in /  1014.4hPa NE 0.1mph /  0.2km/h 4mph /  6.4km/h 39.9% 0.00in /  0mm 983 W/m2
12:39 77.8 °F /  25.4 °C 50.8 °F /  10.4 °C 29.96in /  1014.4hPa NNE 0.9mph /  1.4km/h 5mph /  8km/h 38.9% 0.00in /  0mm 972 W/m2
12:44 77.6 °F /  25.3 °C 49.5 °F /  9.7 °C 29.95in /  1014.1hPa WNW 0.2mph /  0.3km/h 5mph /  8km/h 37.3% 0.00in /  0mm 990 W/m2
12:49 77.3 °F /  25.2 °C 49.3 °F /  9.6 °C 29.95in /  1014.1hPa West 0.7mph /  1.1km/h 5mph /  8km/h 37.5% 0.00in /  0mm 993 W/m2
13:00 76.9 °F /  24.9 °C 50.1 °F /  10.1 °C 29.94in /  1013.8hPa Calm   5mph /  8km/h 39% 0.00in /  0mm 973 W/m2
13:30 79.2 °F /  26.2 °C 50.7 °F /  10.4 °C 29.94in /  1013.8hPa WSW 1mph /  1.6km/h 6mph /  9.7km/h 37% 0.00in /  0mm 987 W/m2
14:00 78.3 °F /  25.7 °C 48.4 °F /  9.1 °C 29.92in /  1013.1hPa Calm   4mph /  6.4km/h 35% 0.00in /  0mm 902 W/m2
14:30 78.5 °F /  25.8 °C 48.6 °F /  9.2 °C 29.91in /  1012.8hPa SW 1mph /  1.6km/h 4mph /  6.4km/h 35% 0.00in /  0mm 862 W/m2
15:00 79.2 °F /  26.2 °C 47.7 °F /  8.7 °C 29.91in /  1012.8hPa South 1mph /  1.6km/h 6mph /  9.7km/h 33% 0.00in /  0mm 867 W/m2
15:30 78.9 °F /  26.1 °C 47.4 °F /  8.6 °C 29.91in /  1012.8hPa South 1mph /  1.6km/h 5mph /  8km/h 33% 0.00in /  0mm 830 W/m2
16:04 78.3 °F /  25.7 °C 48.7 °F /  9.3 °C 29.90in /  1012.4hPa SSE 0.6mph /  1km/h 2mph /  3.2km/h 35.4% 0.00in /  0mm 719 W/m2
16:09 78.4 °F /  25.8 °C 49.1 °F /  9.5 °C 29.90in /  1012.4hPa SSE 0.4mph /  0.6km/h 3mph /  4.8km/h 35.8% 0.00in /  0mm 719 W/m2
16:14 78.4 °F /  25.8 °C 48.3 °F /  9.1 °C 29.90in /  1012.4hPa SSE 0.3mph /  0.5km/h 3mph /  4.8km/h 34.7% 0.00in /  0mm 316 W/m2
16:19 78.2 °F /  25.7 °C 47.4 °F /  8.6 °C 29.90in /  1012.4hPa SSE 0.4mph /  0.6km/h 3mph /  4.8km/h 33.8% 0.00in /  0mm 287 W/m2
16:24 77.7 °F /  25.4 °C 48.4 °F /  9.1 °C 29.90in /  1012.4hPa SSE 0.3mph /  0.5km/h 4mph /  6.4km/h 35.7% 0.00in /  0mm 253 W/m2
16:29 77.5 °F /  25.3 °C 49.2 °F /  9.6 °C 29.90in /  1012.4hPa SSE 0.2mph /  0.3km/h 4mph /  6.4km/h 37% 0.00in /  0mm 251 W/m2
16:34 77.5 °F /  25.3 °C 49 °F /  9.4 °C 29.90in /  1012.4hPa SSW 0.7mph /  1.1km/h 6mph /  9.7km/h 36.8% 0.00in /  0mm 236 W/m2
16:39 77.4 °F /  25.2 °C 49.6 °F /  9.8 °C 29.90in /  1012.4hPa WSW 0.3mph /  0.5km/h 6mph /  9.7km/h 37.7% 0.00in /  0mm 236 W/m2
16:44 77.3 °F /  25.2 °C 49.9 °F /  9.9 °C 29.89in /  1012.1hPa SW 0.4mph /  0.6km/h 6mph /  9.7km/h 38.1% 0.00in /  0mm 248 W/m2
16:49 77.5 °F /  25.3 °C 49.5 °F /  9.7 °C 29.89in /  1012.1hPa WSW 0.2mph /  0.3km/h 6mph /  9.7km/h 37.5% 0.00in /  0mm 178 W/m2
16:54 77.4 °F /  25.2 °C 49.6 °F /  9.8 °C 29.89in /  1012.1hPa SW 1.2mph /  1.9km/h 10mph /  16.1km/h 37.6% 0.00in /  0mm 153 W/m2
16:59 77.4 °F /  25.2 °C 49.8 °F /  9.9 °C 29.89in /  1012.1hPa WSW 0.7mph /  1.1km/h 10mph /  16.1km/h 37.9% 0.00in /  0mm 162 W/m2
17:04 77.3 °F /  25.2 °C 48.6 °F /  9.2 °C 29.89in /  1012.1hPa SSE 0.7mph /  1.1km/h 10mph /  16.1km/h 36.4% 0.00in /  0mm 165 W/m2
17:09 77 °F /  25 °C 48.8 °F /  9.3 °C 29.89in /  1012.1hPa SSE 0.1mph /  0.2km/h 4mph /  6.4km/h 37.1% 0.00in /  0mm 153 W/m2
17:14 76.9 °F /  24.9 °C 49.2 °F /  9.6 °C 29.89in /  1012.1hPa SSW 0.5mph /  0.8km/h 8mph /  12.9km/h 37.9% 0.00in /  0mm 144 W/m2
17:19 76.6 °F /  24.8 °C 48.9 °F /  9.4 °C 29.89in /  1012.1hPa WSW 0.2mph /  0.3km/h 8mph /  12.9km/h 37.7% 0.00in /  0mm 135 W/m2
17:24 76.3 °F /  24.6 °C 49.1 °F /  9.5 °C 29.88in /  1011.7hPa Calm   8mph /  12.9km/h 38.3% 0.00in /  0mm 128 W/m2
17:29 76 °F /  24.4 °C 50.4 °F /  10.2 °C 29.88in /  1011.7hPa WSW 0.1mph /  0.2km/h 8mph /  12.9km/h 40.6% 0.00in /  0mm 142 W/m2
17:34 75.7 °F /  24.3 °C 50 °F /  10 °C 29.88in /  1011.7hPa Calm   8mph /  12.9km/h 40.6% 0.00in /  0mm 144 W/m2
17:39 75.4 °F /  24.1 °C 50.3 °F /  10.2 °C 29.88in /  1011.7hPa SW 0.2mph /  0.3km/h 3mph /  4.8km/h 41.5% 0.00in /  0mm 114 W/m2
17:43 75.1 °F /  23.9 °C 49.1 °F /  9.5 °C 29.88in /  1011.7hPa South 0.4mph /  0.6km/h 3mph /  4.8km/h 40% 0.00in /  0mm 100 W/m2
18:00 74 °F /  23.3 °C 50.1 °F /  10.1 °C 29.87in /  1011.4hPa Calm   3mph /  4.8km/h 43% 0.00in /  0mm 101 W/m2
18:30 73 °F /  22.8 °C 50.4 °F /  10.2 °C 29.86in /  1011.1hPa Calm   4mph /  6.4km/h 45% 0.00in /  0mm 74 W/m2
19:00 72 °F /  22.2 °C 51.3 °F /  10.7 °C 29.87in /  1011.4hPa Calm   4mph /  6.4km/h 48% 0.00in /  0mm 62 W/m2
19:30 71.1 °F /  21.7 °C 51.5 °F /  10.8 °C 29.87in /  1011.4hPa Calm   4mph /  6.4km/h 50% 0.00in /  0mm 40 W/m2
20:04 69.5 °F /  20.8 °C 50.4 °F /  10.2 °C 29.87in /  1011.4hPa South 0.9mph /  1.4km/h 4mph /  6.4km/h 50.7% 0.00in /  0mm 40 W/m2
20:09 69.2 °F /  20.7 °C 50.2 °F /  10.1 °C 29.87in /  1011.4hPa South 0.3mph /  0.5km/h 3mph /  4.8km/h 50.8% 0.00in /  0mm 5 W/m2
20:14 69 °F /  20.6 °C 49.9 °F /  9.9 °C 29.87in /  1011.4hPa South 0.1mph /  0.2km/h 3mph /  4.8km/h 50.5% 0.00in /  0mm 5 W/m2
20:19 68.8 °F /  20.4 °C 49.1 °F /  9.5 °C 29.87in /  1011.4hPa South 0.1mph /  0.2km/h 3mph /  4.8km/h 49.4% 0.00in /  0mm 0 W/m2
20:24 68.6 °F /  20.3 °C 48.9 °F /  9.4 °C 29.88in /  1011.7hPa South 0.1mph /  0.2km/h 3mph /  4.8km/h 49.4% 0.00in /  0mm 0 W/m2
20:29 68.4 °F /  20.2 °C 49.3 °F /  9.6 °C 29.87in /  1011.4hPa Calm   3mph /  4.8km/h 50.4% 0.00in /  0mm 0 W/m2
20:34 68.2 °F /  20.1 °C 49.4 °F /  9.7 °C 29.87in /  1011.4hPa South 0.1mph /  0.2km/h 3mph /  4.8km/h 51% 0.00in /  0mm 0 W/m2
20:39 68.1 °F /  20.1 °C 49.7 °F /  9.8 °C 29.87in /  1011.4hPa Calm   2mph /  3.2km/h 51.9% 0.00in /  0mm 0 W/m2
20:43 67.9 °F /  19.9 °C 49.9 °F /  9.9 °C 29.87in /  1011.4hPa Calm   2mph /  3.2km/h 52.5% 0.00in /  0mm 0 W/m2
21:00 67.4 °F /  19.7 °C 52.1 °F /  11.2 °C 29.86in /  1011.1hPa Calm   2mph /  3.2km/h 58% 0.00in /  0mm 0 W/m2
21:30 66.5 °F /  19.2 °C 54.8 °F /  12.7 °C 29.88in /  1011.7hPa Calm   2mph /  3.2km/h 66% 0.00in /  0mm 0 W/m2
22:00 65.8 °F /  18.8 °C 56.5 °F /  13.6 °C 29.88in /  1011.7hPa Calm   2mph /  3.2km/h 72% 0.00in /  0mm 0 W/m2
22:30 65 °F /  18.3 °C 56.5 °F /  13.6 °C 29.89in /  1012.1hPa Calm     74% 0.00in /  0mm 0 W/m2
23:00 64.6 °F /  18.1 °C 56.9 °F /  13.8 °C 29.88in /  1011.7hPa Calm     76% 0.00in /  0mm 0 W/m2
23:30 64.2 °F /  17.9 °C 56.8 °F /  13.8 °C 29.88in /  1011.7hPa Calm     77% 0.00in /  0mm 0 W/m2
Hartford County Weather
Compliments of Weather Underground - 2 mb